sensor_id;sensor_type;location;lat;lon;timestamp;P1;durP1;ratioP1;P2;durP2;ratioP2
23728;SDS011;12045;60.214;24.724;2023-04-01T00:00:29;2.13;;;1.40;;
23728;SDS011;12045;60.214;24.724;2023-04-01T00:02:56;2.80;;;1.70;;
23728;SDS011;12045;60.214;24.724;2023-04-01T00:05:24;3.77;;;1.67;;
23728;SDS011;12045;60.214;24.724;2023-04-01T00:07:52;4.27;;;1.60;;
23728;SDS011;12045;60.214;24.724;2023-04-01T00:10:19;2.17;;;1.40;;
23728;SDS011;12045;60.214;24.724;2023-04-01T00:12:47;2.83;;;1.37;;
23728;SDS011;12045;60.214;24.724;2023-04-01T00:15:15;2.73;;;1.57;;
23728;SDS011;12045;60.214;24.724;2023-04-01T00:17:42;5.77;;;1.43;;
23728;SDS011;12045;60.214;24.724;2023-04-01T00:20:10;2.27;;;1.00;;
23728;SDS011;12045;60.214;24.724;2023-04-01T00:22:39;2.37;;;1.50;;
23728;SDS011;12045;60.214;24.724;2023-04-01T00:25:08;3.17;;;1.63;;
23728;SDS011;12045;60.214;24.724;2023-04-01T00:27:36;2.87;;;1.63;;
23728;SDS011;12045;60.214;24.724;2023-04-01T00:30:03;3.07;;;1.20;;
23728;SDS011;12045;60.214;24.724;2023-04-01T00:32:32;3.37;;;1.30;;
23728;SDS011;12045;60.214;24.724;2023-04-01T00:35:00;5.70;;;1.43;;
23728;SDS011;12045;60.214;24.724;2023-04-01T00:37:28;2.17;;;1.40;;
23728;SDS011;12045;60.214;24.724;2023-04-01T00:39:56;3.27;;;1.60;;
23728;SDS011;12045;60.214;24.724;2023-04-01T00:42:24;1.80;;;1.33;;
23728;SDS011;12045;60.214;24.724;2023-04-01T00:44:53;1.83;;;1.30;;
23728;SDS011;12045;60.214;24.724;2023-04-01T00:47:22;3.37;;;1.43;;
23728;SDS011;12045;60.214;24.724;2023-04-01T00:49:53;5.13;;;1.13;;
23728;SDS011;12045;60.214;24.724;2023-04-01T00:52:22;2.73;;;1.53;;
23728;SDS011;12045;60.214;24.724;2023-04-01T00:54:53;1.90;;;1.13;;
23728;SDS011;12045;60.214;24.724;2023-04-01T00:57:33;2.43;;;1.40;;
23728;SDS011;12045;60.214;24.724;2023-04-01T01:00:06;2.37;;;1.20;;
23728;SDS011;12045;60.214;24.724;2023-04-01T01:02:38;3.63;;;1.40;;
23728;SDS011;12045;60.214;24.724;2023-04-01T01:05:08;1.33;;;1.10;;
23728;SDS011;12045;60.214;24.724;2023-04-01T01:10:29;4.43;;;1.40;;
23728;SDS011;12045;60.214;24.724;2023-04-01T01:13:09;3.03;;;1.40;;
23728;SDS011;12045;60.214;24.724;2023-04-01T01:15:41;0.57;;;0.57;;
23728;SDS011;12045;60.214;24.724;2023-04-01T01:27:00;0.93;;;0.90;;
23728;SDS011;12045;60.214;24.724;2023-04-01T01:35:15;1.70;;;1.10;;
23728;SDS011;12045;60.214;24.724;2023-04-01T01:37:57;2.10;;;1.10;;
23728;SDS011;12045;60.214;24.724;2023-04-01T01:40:28;2.60;;;1.27;;
23728;SDS011;12045;60.214;24.724;2023-04-01T01:42:59;3.33;;;1.37;;
23728;SDS011;12045;60.214;24.724;2023-04-01T01:45:32;2.47;;;0.90;;
23728;SDS011;12045;60.214;24.724;2023-04-01T01:48:02;1.37;;;1.10;;
23728;SDS011;12045;60.214;24.724;2023-04-01T01:50:32;1.97;;;1.20;;
23728;SDS011;12045;60.214;24.724;2023-04-01T01:53:03;1.80;;;1.10;;
23728;SDS011;12045;60.214;24.724;2023-04-01T01:55:36;2.33;;;1.30;;
23728;SDS011;12045;60.214;24.724;2023-04-01T01:58:07;2.27;;;1.40;;
23728;SDS011;12045;60.214;24.724;2023-04-01T02:00:53;4.27;;;1.23;;
23728;SDS011;12045;60.214;24.724;2023-04-01T02:03:31;3.23;;;1.30;;
23728;SDS011;12045;60.214;24.724;2023-04-01T02:06:03;4.57;;;1.23;;
23728;SDS011;12045;60.214;24.724;2023-04-01T02:08:39;3.03;;;1.33;;
23728;SDS011;12045;60.214;24.724;2023-04-01T02:11:18;1.90;;;1.30;;
23728;SDS011;12045;60.214;24.724;2023-04-01T02:13:52;1.20;;;1.10;;
23728;SDS011;12045;60.214;24.724;2023-04-01T02:16:43;1.63;;;1.23;;
23728;SDS011;12045;60.214;24.724;2023-04-01T02:19:25;1.50;;;1.10;;
23728;SDS011;12045;60.214;24.724;2023-04-01T02:22:00;2.33;;;1.20;;
23728;SDS011;12045;60.214;24.724;2023-04-01T02:24:31;1.83;;;1.30;;
23728;SDS011;12045;60.214;24.724;2023-04-01T02:27:02;3.03;;;1.40;;
23728;SDS011;12045;60.214;24.724;2023-04-01T02:29:30;1.67;;;1.00;;
23728;SDS011;12045;60.214;24.724;2023-04-01T02:31:58;1.27;;;1.10;;
23728;SDS011;12045;60.214;24.724;2023-04-01T02:34:27;2.93;;;1.40;;
23728;SDS011;12045;60.214;24.724;2023-04-01T02:36:55;1.93;;;1.10;;
23728;SDS011;12045;60.214;24.724;2023-04-01T02:39:24;1.60;;;1.10;;
23728;SDS011;12045;60.214;24.724;2023-04-01T02:41:53;2.80;;;1.00;;
23728;SDS011;12045;60.214;24.724;2023-04-01T02:44:20;3.20;;;1.40;;
23728;SDS011;12045;60.214;24.724;2023-04-01T02:46:48;1.57;;;1.30;;
23728;SDS011;12045;60.214;24.724;2023-04-01T02:49:16;1.67;;;1.20;;
23728;SDS011;12045;60.214;24.724;2023-04-01T02:51:44;1.37;;;1.03;;
23728;SDS011;12045;60.214;24.724;2023-04-01T02:54:11;1.40;;;1.20;;
23728;SDS011;12045;60.214;24.724;2023-04-01T02:56:39;1.43;;;1.20;;
23728;SDS011;12045;60.214;24.724;2023-04-01T02:59:06;2.33;;;1.03;;
23728;SDS011;12045;60.214;24.724;2023-04-01T03:01:34;1.77;;;1.30;;
23728;SDS011;12045;60.214;24.724;2023-04-01T03:04:01;3.73;;;1.20;;
23728;SDS011;12045;60.214;24.724;2023-04-01T03:06:29;5.87;;;1.20;;
23728;SDS011;12045;60.214;24.724;2023-04-01T03:08:57;2.17;;;0.90;;
23728;SDS011;12045;60.214;24.724;2023-04-01T03:11:24;1.20;;;1.10;;
23728;SDS011;12045;60.214;24.724;2023-04-01T03:13:53;1.17;;;0.97;;
23728;SDS011;12045;60.214;24.724;2023-04-01T03:16:20;1.93;;;1.03;;
23728;SDS011;12045;60.214;24.724;2023-04-01T03:18:48;1.43;;;1.00;;
23728;SDS011;12045;60.214;24.724;2023-04-01T03:21:19;2.13;;;1.10;;
23728;SDS011;12045;60.214;24.724;2023-04-01T03:23:49;1.27;;;1.17;;
23728;SDS011;12045;60.214;24.724;2023-04-01T03:26:17;2.87;;;1.30;;
23728;SDS011;12045;60.214;24.724;2023-04-01T03:28:44;1.30;;;1.07;;
23728;SDS011;12045;60.214;24.724;2023-04-01T03:31:12;1.20;;;1.10;;
23728;SDS011;12045;60.214;24.724;2023-04-01T03:33:40;2.60;;;1.30;;
23728;SDS011;12045;60.214;24.724;2023-04-01T03:36:07;1.80;;;1.17;;
23728;SDS011;12045;60.214;24.724;2023-04-01T03:38:35;2.40;;;1.33;;
23728;SDS011;12045;60.214;24.724;2023-04-01T03:41:03;2.80;;;1.20;;
23728;SDS011;12045;60.214;24.724;2023-04-01T03:43:31;5.50;;;1.30;;
23728;SDS011;12045;60.214;24.724;2023-04-01T03:45:59;2.20;;;1.23;;
23728;SDS011;12045;60.214;24.724;2023-04-01T03:48:26;2.87;;;1.30;;
23728;SDS011;12045;60.214;24.724;2023-04-01T03:50:54;2.50;;;1.30;;
23728;SDS011;12045;60.214;24.724;2023-04-01T03:53:22;3.70;;;1.40;;
23728;SDS011;12045;60.214;24.724;2023-04-01T03:55:49;2.40;;;1.20;;
23728;SDS011;12045;60.214;24.724;2023-04-01T03:58:18;1.57;;;0.90;;
23728;SDS011;12045;60.214;24.724;2023-04-01T04:00:46;1.63;;;1.00;;
23728;SDS011;12045;60.214;24.724;2023-04-01T04:03:13;2.60;;;1.10;;
23728;SDS011;12045;60.214;24.724;2023-04-01T04:05:48;1.27;;;1.10;;
23728;SDS011;12045;60.214;24.724;2023-04-01T04:08:16;2.07;;;1.20;;
23728;SDS011;12045;60.214;24.724;2023-04-01T04:10:43;2.80;;;1.40;;
23728;SDS011;12045;60.214;24.724;2023-04-01T04:13:11;2.23;;;1.13;;
23728;SDS011;12045;60.214;24.724;2023-04-01T04:15:38;0.93;;;0.83;;
23728;SDS011;12045;60.214;24.724;2023-04-01T04:18:06;5.80;;;1.20;;
23728;SDS011;12045;60.214;24.724;2023-04-01T04:20:33;1.40;;;0.90;;
23728;SDS011;12045;60.214;24.724;2023-04-01T04:23:01;1.33;;;1.13;;
23728;SDS011;12045;60.214;24.724;2023-04-01T04:25:32;1.57;;;1.20;;
23728;SDS011;12045;60.214;24.724;2023-04-01T04:28:00;19.20;;;1.50;;
23728;SDS011;12045;60.214;24.724;2023-04-01T04:30:27;1.23;;;1.00;;
23728;SDS011;12045;60.214;24.724;2023-04-01T04:32:55;5.23;;;1.00;;
23728;SDS011;12045;60.214;24.724;2023-04-01T04:35:23;2.17;;;0.90;;
23728;SDS011;12045;60.214;24.724;2023-04-01T04:37:50;1.80;;;1.00;;
23728;SDS011;12045;60.214;24.724;2023-04-01T04:40:18;2.00;;;0.90;;
23728;SDS011;12045;60.214;24.724;2023-04-01T04:42:45;1.27;;;0.97;;
23728;SDS011;12045;60.214;24.724;2023-04-01T04:45:13;1.13;;;1.00;;
23728;SDS011;12045;60.214;24.724;2023-04-01T04:47:43;1.07;;;0.87;;
23728;SDS011;12045;60.214;24.724;2023-04-01T04:50:11;1.67;;;1.00;;
23728;SDS011;12045;60.214;24.724;2023-04-01T04:52:39;0.97;;;0.77;;
23728;SDS011;12045;60.214;24.724;2023-04-01T04:55:07;0.87;;;0.80;;
23728;SDS011;12045;60.214;24.724;2023-04-01T04:57:35;1.33;;;0.90;;
23728;SDS011;12045;60.214;24.724;2023-04-01T05:00:03;0.70;;;0.60;;
23728;SDS011;12045;60.214;24.724;2023-04-01T05:02:31;4.77;;;1.20;;
23728;SDS011;12045;60.214;24.724;2023-04-01T05:04:58;3.10;;;1.00;;
23728;SDS011;12045;60.214;24.724;2023-04-01T05:07:26;1.60;;;1.30;;
23728;SDS011;12045;60.214;24.724;2023-04-01T05:09:53;3.80;;;1.40;;
23728;SDS011;12045;60.214;24.724;2023-04-01T05:12:22;1.97;;;0.97;;
23728;SDS011;12045;60.214;24.724;2023-04-01T05:14:49;3.07;;;0.97;;
23728;SDS011;12045;60.214;24.724;2023-04-01T05:17:17;2.60;;;1.40;;
23728;SDS011;12045;60.214;24.724;2023-04-01T05:19:44;0.90;;;0.70;;
23728;SDS011;12045;60.214;24.724;2023-04-01T05:22:11;2.03;;;1.03;;
23728;SDS011;12045;60.214;24.724;2023-04-01T05:24:39;2.37;;;1.20;;
23728;SDS011;12045;60.214;24.724;2023-04-01T05:27:06;4.03;;;1.40;;
23728;SDS011;12045;60.214;24.724;2023-04-01T05:29:34;1.47;;;0.90;;
23728;SDS011;12045;60.214;24.724;2023-04-01T05:32:01;1.60;;;1.03;;
23728;SDS011;12045;60.214;24.724;2023-04-01T05:34:29;1.00;;;0.90;;
23728;SDS011;12045;60.214;24.724;2023-04-01T05:36:57;1.87;;;1.33;;
23728;SDS011;12045;60.214;24.724;2023-04-01T05:39:24;1.90;;;1.17;;
23728;SDS011;12045;60.214;24.724;2023-04-01T05:41:52;2.90;;;1.30;;
23728;SDS011;12045;60.214;24.724;2023-04-01T05:44:19;1.40;;;1.10;;
23728;SDS011;12045;60.214;24.724;2023-04-01T05:46:47;1.43;;;1.00;;
23728;SDS011;12045;60.214;24.724;2023-04-01T05:49:14;1.77;;;1.20;;
23728;SDS011;12045;60.214;24.724;2023-04-01T05:51:42;2.67;;;1.33;;
23728;SDS011;12045;60.214;24.724;2023-04-01T05:54:09;3.30;;;1.33;;
23728;SDS011;12045;60.214;24.724;2023-04-01T05:56:37;1.90;;;1.30;;
23728;SDS011;12045;60.214;24.724;2023-04-01T05:59:04;2.00;;;1.13;;
23728;SDS011;12045;60.214;24.724;2023-04-01T06:01:32;6.60;;;1.40;;
23728;SDS011;12045;60.214;24.724;2023-04-01T06:03:59;10.43;;;1.20;;
23728;SDS011;12045;60.214;24.724;2023-04-01T06:06:28;2.10;;;1.37;;
23728;SDS011;12045;60.214;24.724;2023-04-01T06:08:56;3.03;;;1.33;;
23728;SDS011;12045;60.214;24.724;2023-04-01T06:11:42;3.20;;;1.30;;
23728;SDS011;12045;60.214;24.724;2023-04-01T06:21:04;0.40;;;0.40;;
23728;SDS011;12045;60.214;24.724;2023-04-01T06:23:45;1.00;;;0.80;;
23728;SDS011;12045;60.214;24.724;2023-04-01T06:26:37;1.43;;;1.27;;
23728;SDS011;12045;60.214;24.724;2023-04-01T06:40:42;1.73;;;1.03;;
23728;SDS011;12045;60.214;24.724;2023-04-01T06:46:21;1.30;;;1.00;;
23728;SDS011;12045;60.214;24.724;2023-04-01T06:57:49;5.90;;;1.53;;
23728;SDS011;12045;60.214;24.724;2023-04-01T07:00:29;5.27;;;1.13;;
23728;SDS011;12045;60.214;24.724;2023-04-01T07:05:48;3.63;;;0.90;;
23728;SDS011;12045;60.214;24.724;2023-04-01T07:08:21;2.10;;;1.10;;
23728;SDS011;12045;60.214;24.724;2023-04-01T07:16:15;2.37;;;0.83;;
23728;SDS011;12045;60.214;24.724;2023-04-01T07:18:52;3.10;;;1.17;;
23728;SDS011;12045;60.214;24.724;2023-04-01T07:21:41;2.83;;;1.20;;
23728;SDS011;12045;60.214;24.724;2023-04-01T07:24:47;3.93;;;1.20;;
23728;SDS011;12045;60.214;24.724;2023-04-01T07:27:09;2.50;;;1.07;;
23728;SDS011;12045;60.214;24.724;2023-04-01T07:29:37;4.60;;;1.00;;
23728;SDS011;12045;60.214;24.724;2023-04-01T07:40:20;1.00;;;0.70;;
23728;SDS011;12045;60.214;24.724;2023-04-01T07:45:31;2.60;;;1.13;;
23728;SDS011;12045;60.214;24.724;2023-04-01T07:51:17;1.93;;;0.97;;
23728;SDS011;12045;60.214;24.724;2023-04-01T07:53:49;4.47;;;1.37;;
23728;SDS011;12045;60.214;24.724;2023-04-01T07:56:24;3.33;;;1.23;;
23728;SDS011;12045;60.214;24.724;2023-04-01T08:11:04;1.77;;;0.90;;
23728;SDS011;12045;60.214;24.724;2023-04-01T08:13:51;1.83;;;1.03;;
23728;SDS011;12045;60.214;24.724;2023-04-01T08:22:33;2.83;;;0.50;;
23728;SDS011;12045;60.214;24.724;2023-04-01T08:25:09;2.03;;;0.67;;
23728;SDS011;12045;60.214;24.724;2023-04-01T08:27:51;2.53;;;0.87;;
23728;SDS011;12045;60.214;24.724;2023-04-01T08:30:41;1.90;;;0.83;;
23728;SDS011;12045;60.214;24.724;2023-04-01T08:38:59;1.60;;;0.80;;
23728;SDS011;12045;60.214;24.724;2023-04-01T08:56:20;1.90;;;0.88;;
23728;SDS011;12045;60.214;24.724;2023-04-01T09:04:30;1.65;;;0.98;;
23728;SDS011;12045;60.214;24.724;2023-04-01T09:29:34;2.47;;;0.60;;
23728;SDS011;12045;60.214;24.724;2023-04-01T09:46:32;0.40;;;0.40;;
23728;SDS011;12045;60.214;24.724;2023-04-01T09:52:38;0.80;;;0.60;;
23728;SDS011;12045;60.214;24.724;2023-04-01T10:06:11;0.80;;;0.50;;
23728;SDS011;12045;60.214;24.724;2023-04-01T10:08:51;3.05;;;0.50;;
23728;SDS011;12045;60.214;24.724;2023-04-01T10:36:41;1.20;;;0.57;;
23728;SDS011;12045;60.214;24.724;2023-04-01T10:53:04;3.00;;;0.70;;
23728;SDS011;12045;60.214;24.724;2023-04-01T11:01:03;0.80;;;0.50;;
23728;SDS011;12045;60.214;24.724;2023-04-01T11:09:35;0.40;;;0.40;;
23728;SDS011;12045;60.214;24.724;2023-04-01T11:12:31;1.17;;;0.55;;
23728;SDS011;12045;60.214;24.724;2023-04-01T11:18:45;0.70;;;0.40;;
23728;SDS011;12045;60.214;24.724;2023-04-01T11:24:24;0.75;;;0.40;;
23728;SDS011;12045;60.214;24.724;2023-04-01T11:27:04;1.95;;;0.75;;
23728;SDS011;12045;60.214;24.724;2023-04-01T11:47:00;1.48;;;0.60;;
23728;SDS011;12045;60.214;24.724;2023-04-01T11:49:36;3.30;;;0.55;;
23728;SDS011;12045;60.214;24.724;2023-04-01T11:57:51;0.45;;;0.40;;
23728;SDS011;12045;60.214;24.724;2023-04-01T12:11:25;0.40;;;0.40;;
23728;SDS011;12045;60.214;24.724;2023-04-01T12:16:46;0.38;;;0.30;;
23728;SDS011;12045;60.214;24.724;2023-04-01T12:19:43;0.30;;;0.30;;
23728;SDS011;12045;60.214;24.724;2023-04-01T12:52:58;0.60;;;0.57;;
23728;SDS011;12045;60.214;24.724;2023-04-01T12:55:48;1.95;;;0.50;;
23728;SDS011;12045;60.214;24.724;2023-04-01T13:18:48;0.45;;;0.40;;
23728;SDS011;12045;60.214;24.724;2023-04-01T13:27:01;0.55;;;0.50;;
23728;SDS011;12045;60.214;24.724;2023-04-01T13:37:46;0.77;;;0.32;;
23728;SDS011;12045;60.214;24.724;2023-04-01T13:42:53;0.63;;;0.43;;
23728;SDS011;12045;60.214;24.724;2023-04-01T13:45:24;1.75;;;0.50;;
23728;SDS011;12045;60.214;24.724;2023-04-01T13:53:39;1.10;;;0.50;;
23728;SDS011;12045;60.214;24.724;2023-04-01T14:02:14;1.58;;;0.50;;
23728;SDS011;12045;60.214;24.724;2023-04-01T14:11:16;0.77;;;0.50;;
23728;SDS011;12045;60.214;24.724;2023-04-01T14:19:56;1.38;;;0.50;;
23728;SDS011;12045;60.214;24.724;2023-04-01T14:34:03;0.65;;;0.50;;
23728;SDS011;12045;60.214;24.724;2023-04-01T14:40:24;0.82;;;0.40;;
23728;SDS011;12045;60.214;24.724;2023-04-01T14:46:03;0.57;;;0.50;;
23728;SDS011;12045;60.214;24.724;2023-04-01T14:48:37;0.30;;;0.30;;
23728;SDS011;12045;60.214;24.724;2023-04-01T14:51:17;1.17;;;0.57;;
23728;SDS011;12045;60.214;24.724;2023-04-01T14:59:59;0.50;;;0.50;;
23728;SDS011;12045;60.214;24.724;2023-04-01T15:02:37;1.85;;;0.40;;
23728;SDS011;12045;60.214;24.724;2023-04-01T15:08:29;0.50;;;0.50;;
23728;SDS011;12045;60.214;24.724;2023-04-01T15:16:25;5.13;;;0.60;;
23728;SDS011;12045;60.214;24.724;2023-04-01T15:22:06;2.45;;;1.25;;
23728;SDS011;12045;60.214;24.724;2023-04-01T15:34:15;1.15;;;0.50;;
23728;SDS011;12045;60.214;24.724;2023-04-01T15:39:29;0.75;;;0.70;;
23728;SDS011;12045;60.214;24.724;2023-04-01T15:48:20;1.48;;;0.95;;
23728;SDS011;12045;60.214;24.724;2023-04-01T15:54:05;2.40;;;0.90;;
23728;SDS011;12045;60.214;24.724;2023-04-01T15:59:49;1.58;;;0.70;;
23728;SDS011;12045;60.214;24.724;2023-04-01T16:26:59;0.75;;;0.60;;
23728;SDS011;12045;60.214;24.724;2023-04-01T16:32:54;1.65;;;0.70;;
23728;SDS011;12045;60.214;24.724;2023-04-01T16:35:28;0.70;;;0.60;;
23728;SDS011;12045;60.214;24.724;2023-04-01T16:38:16;2.25;;;1.00;;
23728;SDS011;12045;60.214;24.724;2023-04-01T16:43:45;1.65;;;1.20;;
23728;SDS011;12045;60.214;24.724;2023-04-01T16:59:37;1.63;;;1.00;;
23728;SDS011;12045;60.214;24.724;2023-04-01T17:04:45;1.00;;;0.70;;
23728;SDS011;12045;60.214;24.724;2023-04-01T17:07:23;4.82;;;1.20;;
23728;SDS011;12045;60.214;24.724;2023-04-01T17:18:59;1.50;;;1.00;;
23728;SDS011;12045;60.214;24.724;2023-04-01T17:21:49;1.25;;;1.10;;
23728;SDS011;12045;60.214;24.724;2023-04-01T17:32:59;2.23;;;0.87;;
23728;SDS011;12045;60.214;24.724;2023-04-01T17:35:39;3.83;;;0.98;;
23728;SDS011;12045;60.214;24.724;2023-04-01T17:38:51;3.23;;;1.00;;
23728;SDS011;12045;60.214;24.724;2023-04-01T17:41:47;1.48;;;0.90;;
23728;SDS011;12045;60.214;24.724;2023-04-01T17:44:26;1.20;;;0.83;;
23728;SDS011;12045;60.214;24.724;2023-04-01T17:58:19;2.83;;;1.07;;
23728;SDS011;12045;60.214;24.724;2023-04-01T18:00:50;1.97;;;0.80;;
23728;SDS011;12045;60.214;24.724;2023-04-01T18:17:18;2.83;;;0.90;;
23728;SDS011;12045;60.214;24.724;2023-04-01T18:20:25;3.23;;;0.90;;
23728;SDS011;12045;60.214;24.724;2023-04-01T18:23:04;2.40;;;0.80;;
23728;SDS011;12045;60.214;24.724;2023-04-01T18:25:53;1.27;;;0.80;;
23728;SDS011;12045;60.214;24.724;2023-04-01T18:28:32;3.27;;;0.90;;
23728;SDS011;12045;60.214;24.724;2023-04-01T18:31:26;1.90;;;0.80;;
23728;SDS011;12045;60.214;24.724;2023-04-01T18:42:08;1.43;;;0.80;;
23728;SDS011;12045;60.214;24.724;2023-04-01T18:47:50;2.30;;;0.80;;
23728;SDS011;12045;60.214;24.724;2023-04-01T18:50:47;4.63;;;1.00;;
23728;SDS011;12045;60.214;24.724;2023-04-01T18:56:07;3.03;;;0.90;;
23728;SDS011;12045;60.214;24.724;2023-04-01T18:58:48;3.97;;;0.80;;
23728;SDS011;12045;60.214;24.724;2023-04-01T19:10:14;2.10;;;0.80;;
23728;SDS011;12045;60.214;24.724;2023-04-01T19:15:57;2.27;;;0.87;;
23728;SDS011;12045;60.214;24.724;2023-04-01T19:21:11;1.93;;;0.93;;
23728;SDS011;12045;60.214;24.724;2023-04-01T19:29:26;2.20;;;1.00;;
23728;SDS011;12045;60.214;24.724;2023-04-01T19:34:57;3.07;;;1.07;;
23728;SDS011;12045;60.214;24.724;2023-04-01T19:40:24;3.63;;;1.00;;
23728;SDS011;12045;60.214;24.724;2023-04-01T19:54:19;3.30;;;0.90;;
23728;SDS011;12045;60.214;24.724;2023-04-01T19:57:00;5.17;;;0.90;;
23728;SDS011;12045;60.214;24.724;2023-04-01T20:08:00;1.47;;;0.73;;
23728;SDS011;12045;60.214;24.724;2023-04-01T20:11:02;3.33;;;0.90;;
23728;SDS011;12045;60.214;24.724;2023-04-01T20:16:48;2.47;;;1.07;;
23728;SDS011;12045;60.214;24.724;2023-04-01T20:19:21;0.70;;;0.70;;
23728;SDS011;12045;60.214;24.724;2023-04-01T20:21:59;2.43;;;0.83;;
23728;SDS011;12045;60.214;24.724;2023-04-01T20:24:30;3.03;;;0.97;;
23728;SDS011;12045;60.214;24.724;2023-04-01T20:27:09;2.07;;;0.90;;
23728;SDS011;12045;60.214;24.724;2023-04-01T20:32:33;1.87;;;0.90;;
23728;SDS011;12045;60.214;24.724;2023-04-01T20:35:19;3.97;;;0.80;;
23728;SDS011;12045;60.214;24.724;2023-04-01T20:40:47;3.07;;;0.90;;
23728;SDS011;12045;60.214;24.724;2023-04-01T20:51:43;2.87;;;0.80;;
23728;SDS011;12045;60.214;24.724;2023-04-01T21:11:51;2.50;;;0.90;;
23728;SDS011;12045;60.214;24.724;2023-04-01T21:14:32;3.33;;;0.80;;
23728;SDS011;12045;60.214;24.724;2023-04-01T21:33:54;2.50;;;0.90;;
23728;SDS011;12045;60.214;24.724;2023-04-01T21:37:07;1.73;;;0.90;;
23728;SDS011;12045;60.214;24.724;2023-04-01T21:45:39;3.37;;;0.80;;
23728;SDS011;12045;60.214;24.724;2023-04-01T21:48:32;3.03;;;1.30;;
23728;SDS011;12045;60.214;24.724;2023-04-01T21:51:24;2.50;;;0.90;;
23728;SDS011;12045;60.214;24.724;2023-04-01T21:57:30;3.33;;;0.90;;
23728;SDS011;12045;60.214;24.724;2023-04-01T22:11:42;2.17;;;0.93;;
23728;SDS011;12045;60.214;24.724;2023-04-01T22:16:55;1.70;;;1.00;;
23728;SDS011;12045;60.214;24.724;2023-04-01T22:22:21;2.03;;;0.80;;
23728;SDS011;12045;60.214;24.724;2023-04-01T22:25:01;3.87;;;1.00;;
23728;SDS011;12045;60.214;24.724;2023-04-01T22:27:53;3.67;;;1.13;;
23728;SDS011;12045;60.214;24.724;2023-04-01T22:30:29;3.20;;;1.13;;
23728;SDS011;12045;60.214;24.724;2023-04-01T22:43:43;3.40;;;1.10;;
23728;SDS011;12045;60.214;24.724;2023-04-01T22:46:34;4.80;;;1.00;;
23728;SDS011;12045;60.214;24.724;2023-04-01T22:51:46;3.00;;;0.90;;
23728;SDS011;12045;60.214;24.724;2023-04-01T22:57:14;1.90;;;0.80;;
23728;SDS011;12045;60.214;24.724;2023-04-01T23:02:38;1.83;;;1.00;;
23728;SDS011;12045;60.214;24.724;2023-04-01T23:05:10;2.07;;;0.60;;
23728;SDS011;12045;60.214;24.724;2023-04-01T23:08:24;2.23;;;0.90;;
23728;SDS011;12045;60.214;24.724;2023-04-01T23:13:18;2.40;;;1.10;;
23728;SDS011;12045;60.214;24.724;2023-04-01T23:15:50;1.93;;;0.77;;
23728;SDS011;12045;60.214;24.724;2023-04-01T23:18:21;3.13;;;0.93;;
23728;SDS011;12045;60.214;24.724;2023-04-01T23:21:03;1.00;;;0.63;;
23728;SDS011;12045;60.214;24.724;2023-04-01T23:26:17;1.60;;;0.80;;
23728;SDS011;12045;60.214;24.724;2023-04-01T23:28:59;6.20;;;0.80;;
23728;SDS011;12045;60.214;24.724;2023-04-01T23:31:41;2.47;;;0.90;;
23728;SDS011;12045;60.214;24.724;2023-04-01T23:36:41;3.90;;;1.10;;
23728;SDS011;12045;60.214;24.724;2023-04-01T23:39:31;3.73;;;1.20;;
23728;SDS011;12045;60.214;24.724;2023-04-01T23:42:07;1.40;;;0.70;;
23728;SDS011;12045;60.214;24.724;2023-04-01T23:45:12;1.07;;;0.80;;
23728;SDS011;12045;60.214;24.724;2023-04-01T23:47:47;0.73;;;0.67;;
23728;SDS011;12045;60.214;24.724;2023-04-01T23:50:18;2.13;;;0.60;;
23728;SDS011;12045;60.214;24.724;2023-04-01T23:52:54;4.23;;;1.20;;
23728;SDS011;12045;60.214;24.724;2023-04-01T23:55:42;0.93;;;0.60;;
23728;SDS011;12045;60.214;24.724;2023-04-01T23:58:23;1.43;;;0.80;;
